sensor_id;sensor_type;location;lat;lon;timestamp;P1;durP1;ratioP1;P2;durP2;ratioP2
17488;SDS011;8861;52.644;4.734;2023-07-24T00:01:05;11.93;;;5.93;;
17488;SDS011;8861;52.644;4.734;2023-07-24T00:03:32;11.10;;;5.40;;
17488;SDS011;8861;52.644;4.734;2023-07-24T00:05:59;10.27;;;5.47;;
17488;SDS011;8861;52.644;4.734;2023-07-24T00:08:27;11.00;;;5.40;;
17488;SDS011;8861;52.644;4.734;2023-07-24T00:10:54;10.63;;;5.50;;
17488;SDS011;8861;52.644;4.734;2023-07-24T00:13:22;10.60;;;5.47;;
17488;SDS011;8861;52.644;4.734;2023-07-24T00:15:49;9.67;;;5.23;;
17488;SDS011;8861;52.644;4.734;2023-07-24T00:18:16;15.93;;;6.17;;
17488;SDS011;8861;52.644;4.734;2023-07-24T00:20:43;13.10;;;5.80;;
17488;SDS011;8861;52.644;4.734;2023-07-24T00:23:10;14.90;;;5.77;;
17488;SDS011;8861;52.644;4.734;2023-07-24T00:25:38;12.37;;;5.30;;
17488;SDS011;8861;52.644;4.734;2023-07-24T00:28:05;11.33;;;5.63;;
17488;SDS011;8861;52.644;4.734;2023-07-24T00:30:32;15.47;;;5.60;;
17488;SDS011;8861;52.644;4.734;2023-07-24T00:32:59;13.13;;;5.87;;
17488;SDS011;8861;52.644;4.734;2023-07-24T00:35:27;15.03;;;5.47;;
17488;SDS011;8861;52.644;4.734;2023-07-24T00:37:54;10.17;;;5.03;;
17488;SDS011;8861;52.644;4.734;2023-07-24T00:40:20;12.47;;;5.10;;
17488;SDS011;8861;52.644;4.734;2023-07-24T00:42:49;11.80;;;4.57;;
17488;SDS011;8861;52.644;4.734;2023-07-24T00:45:16;11.37;;;5.03;;
17488;SDS011;8861;52.644;4.734;2023-07-24T00:47:43;12.33;;;4.80;;
17488;SDS011;8861;52.644;4.734;2023-07-24T00:50:11;12.00;;;5.40;;
17488;SDS011;8861;52.644;4.734;2023-07-24T00:52:38;10.87;;;5.00;;
17488;SDS011;8861;52.644;4.734;2023-07-24T00:55:06;12.47;;;5.57;;
17488;SDS011;8861;52.644;4.734;2023-07-24T00:57:35;11.63;;;5.13;;
17488;SDS011;8861;52.644;4.734;2023-07-24T01:00:04;15.57;;;5.40;;
17488;SDS011;8861;52.644;4.734;2023-07-24T01:02:32;11.20;;;5.10;;
17488;SDS011;8861;52.644;4.734;2023-07-24T01:04:59;12.93;;;4.77;;
17488;SDS011;8861;52.644;4.734;2023-07-24T01:07:26;16.80;;;5.13;;
17488;SDS011;8861;52.644;4.734;2023-07-24T01:09:53;10.47;;;4.93;;
17488;SDS011;8861;52.644;4.734;2023-07-24T01:12:22;11.07;;;4.70;;
17488;SDS011;8861;52.644;4.734;2023-07-24T01:14:58;11.20;;;4.90;;
17488;SDS011;8861;52.644;4.734;2023-07-24T01:17:31;13.30;;;5.13;;
17488;SDS011;8861;52.644;4.734;2023-07-24T01:20:01;11.33;;;4.37;;
17488;SDS011;8861;52.644;4.734;2023-07-24T01:22:32;11.50;;;4.67;;
17488;SDS011;8861;52.644;4.734;2023-07-24T01:25:09;11.90;;;4.47;;
17488;SDS011;8861;52.644;4.734;2023-07-24T01:27:43;12.03;;;4.57;;
17488;SDS011;8861;52.644;4.734;2023-07-24T01:30:11;11.97;;;4.77;;
17488;SDS011;8861;52.644;4.734;2023-07-24T01:32:39;14.53;;;5.23;;
17488;SDS011;8861;52.644;4.734;2023-07-24T01:35:06;15.43;;;5.27;;
17488;SDS011;8861;52.644;4.734;2023-07-24T01:37:33;9.33;;;4.70;;
17488;SDS011;8861;52.644;4.734;2023-07-24T01:40:04;10.73;;;4.77;;
17488;SDS011;8861;52.644;4.734;2023-07-24T01:42:34;13.07;;;4.60;;
17488;SDS011;8861;52.644;4.734;2023-07-24T01:45:04;11.23;;;4.70;;
17488;SDS011;8861;52.644;4.734;2023-07-24T01:47:31;16.57;;;5.00;;
17488;SDS011;8861;52.644;4.734;2023-07-24T01:49:59;14.87;;;5.00;;
17488;SDS011;8861;52.644;4.734;2023-07-24T01:52:26;12.93;;;4.87;;
17488;SDS011;8861;52.644;4.734;2023-07-24T01:54:53;12.40;;;4.90;;
17488;SDS011;8861;52.644;4.734;2023-07-24T01:57:20;9.77;;;4.43;;
17488;SDS011;8861;52.644;4.734;2023-07-24T01:59:47;10.57;;;4.43;;
17488;SDS011;8861;52.644;4.734;2023-07-24T02:02:15;12.20;;;4.40;;
17488;SDS011;8861;52.644;4.734;2023-07-24T02:04:42;9.83;;;4.60;;
17488;SDS011;8861;52.644;4.734;2023-07-24T02:07:09;12.47;;;5.17;;
17488;SDS011;8861;52.644;4.734;2023-07-24T02:09:36;12.87;;;4.60;;
17488;SDS011;8861;52.644;4.734;2023-07-24T02:12:03;14.67;;;4.80;;
17488;SDS011;8861;52.644;4.734;2023-07-24T02:14:31;13.50;;;4.87;;
17488;SDS011;8861;52.644;4.734;2023-07-24T02:16:58;17.23;;;5.43;;
17488;SDS011;8861;52.644;4.734;2023-07-24T02:19:27;13.07;;;4.70;;
17488;SDS011;8861;52.644;4.734;2023-07-24T02:21:53;9.03;;;4.30;;
17488;SDS011;8861;52.644;4.734;2023-07-24T02:24:20;8.37;;;3.80;;
17488;SDS011;8861;52.644;4.734;2023-07-24T02:26:47;10.73;;;4.80;;
17488;SDS011;8861;52.644;4.734;2023-07-24T02:29:14;13.03;;;5.10;;
17488;SDS011;8861;52.644;4.734;2023-07-24T02:31:41;9.97;;;4.80;;
17488;SDS011;8861;52.644;4.734;2023-07-24T02:34:08;12.97;;;4.83;;
17488;SDS011;8861;52.644;4.734;2023-07-24T02:36:37;15.87;;;5.20;;
17488;SDS011;8861;52.644;4.734;2023-07-24T02:39:06;14.57;;;5.10;;
17488;SDS011;8861;52.644;4.734;2023-07-24T02:41:33;12.43;;;4.80;;
17488;SDS011;8861;52.644;4.734;2023-07-24T02:44:01;11.90;;;5.13;;
17488;SDS011;8861;52.644;4.734;2023-07-24T02:46:28;16.83;;;5.67;;
17488;SDS011;8861;52.644;4.734;2023-07-24T02:48:56;17.10;;;6.20;;
17488;SDS011;8861;52.644;4.734;2023-07-24T02:51:22;16.03;;;5.40;;
17488;SDS011;8861;52.644;4.734;2023-07-24T02:53:52;11.37;;;5.20;;
17488;SDS011;8861;52.644;4.734;2023-07-24T02:56:20;11.20;;;5.20;;
17488;SDS011;8861;52.644;4.734;2023-07-24T02:58:47;12.07;;;5.63;;
17488;SDS011;8861;52.644;4.734;2023-07-24T03:01:14;12.43;;;5.17;;
17488;SDS011;8861;52.644;4.734;2023-07-24T03:03:41;9.23;;;5.30;;
17488;SDS011;8861;52.644;4.734;2023-07-24T03:06:08;12.93;;;5.50;;
17488;SDS011;8861;52.644;4.734;2023-07-24T03:08:35;10.67;;;5.30;;
17488;SDS011;8861;52.644;4.734;2023-07-24T03:11:05;12.30;;;5.60;;
17488;SDS011;8861;52.644;4.734;2023-07-24T03:13:32;11.03;;;5.77;;
17488;SDS011;8861;52.644;4.734;2023-07-24T03:15:59;15.67;;;6.53;;
17488;SDS011;8861;52.644;4.734;2023-07-24T03:18:26;16.53;;;6.37;;
17488;SDS011;8861;52.644;4.734;2023-07-24T03:20:53;13.30;;;5.87;;
17488;SDS011;8861;52.644;4.734;2023-07-24T03:23:20;14.00;;;6.20;;
17488;SDS011;8861;52.644;4.734;2023-07-24T03:25:47;13.43;;;5.73;;
17488;SDS011;8861;52.644;4.734;2023-07-24T03:28:16;13.30;;;5.90;;
17488;SDS011;8861;52.644;4.734;2023-07-24T03:30:43;12.27;;;5.73;;
17488;SDS011;8861;52.644;4.734;2023-07-24T03:33:09;13.47;;;6.10;;
17488;SDS011;8861;52.644;4.734;2023-07-24T03:35:37;14.27;;;6.03;;
17488;SDS011;8861;52.644;4.734;2023-07-24T03:38:04;11.10;;;5.60;;
17488;SDS011;8861;52.644;4.734;2023-07-24T03:40:31;12.57;;;5.50;;
17488;SDS011;8861;52.644;4.734;2023-07-24T03:42:58;11.00;;;5.70;;
17488;SDS011;8861;52.644;4.734;2023-07-24T03:45:27;11.07;;;5.80;;
17488;SDS011;8861;52.644;4.734;2023-07-24T03:47:54;12.20;;;6.20;;
17488;SDS011;8861;52.644;4.734;2023-07-24T03:50:21;12.57;;;5.77;;
17488;SDS011;8861;52.644;4.734;2023-07-24T03:52:48;11.80;;;5.57;;
17488;SDS011;8861;52.644;4.734;2023-07-24T03:55:14;13.17;;;5.57;;
17488;SDS011;8861;52.644;4.734;2023-07-24T03:57:41;13.47;;;6.03;;
17488;SDS011;8861;52.644;4.734;2023-07-24T04:00:09;11.40;;;5.87;;
17488;SDS011;8861;52.644;4.734;2023-07-24T04:02:38;12.60;;;5.77;;
17488;SDS011;8861;52.644;4.734;2023-07-24T04:05:05;16.00;;;6.63;;
17488;SDS011;8861;52.644;4.734;2023-07-24T04:07:33;12.20;;;6.23;;
17488;SDS011;8861;52.644;4.734;2023-07-24T04:10:00;9.93;;;6.07;;
17488;SDS011;8861;52.644;4.734;2023-07-24T04:12:28;11.23;;;5.80;;
17488;SDS011;8861;52.644;4.734;2023-07-24T04:14:55;10.03;;;5.20;;
17488;SDS011;8861;52.644;4.734;2023-07-24T04:17:22;9.07;;;5.63;;
17488;SDS011;8861;52.644;4.734;2023-07-24T04:19:50;11.70;;;5.80;;
17488;SDS011;8861;52.644;4.734;2023-07-24T04:22:18;11.73;;;6.40;;
17488;SDS011;8861;52.644;4.734;2023-07-24T04:24:44;15.37;;;6.67;;
17488;SDS011;8861;52.644;4.734;2023-07-24T04:27:11;16.30;;;6.60;;
17488;SDS011;8861;52.644;4.734;2023-07-24T04:29:38;12.23;;;5.70;;
17488;SDS011;8861;52.644;4.734;2023-07-24T04:32:06;12.73;;;6.43;;
17488;SDS011;8861;52.644;4.734;2023-07-24T04:34:33;10.30;;;6.37;;
17488;SDS011;8861;52.644;4.734;2023-07-24T04:37:01;14.70;;;7.00;;
17488;SDS011;8861;52.644;4.734;2023-07-24T04:39:29;12.07;;;6.20;;
17488;SDS011;8861;52.644;4.734;2023-07-24T04:41:55;13.67;;;6.80;;
17488;SDS011;8861;52.644;4.734;2023-07-24T04:44:22;14.10;;;6.87;;
17488;SDS011;8861;52.644;4.734;2023-07-24T04:46:49;12.43;;;6.17;;
17488;SDS011;8861;52.644;4.734;2023-07-24T04:49:16;15.87;;;7.00;;
17488;SDS011;8861;52.644;4.734;2023-07-24T04:51:43;17.23;;;6.73;;
17488;SDS011;8861;52.644;4.734;2023-07-24T04:54:11;13.73;;;6.63;;
17488;SDS011;8861;52.644;4.734;2023-07-24T04:56:38;12.87;;;6.53;;
17488;SDS011;8861;52.644;4.734;2023-07-24T04:59:05;11.80;;;6.30;;
17488;SDS011;8861;52.644;4.734;2023-07-24T05:01:32;11.80;;;6.37;;
17488;SDS011;8861;52.644;4.734;2023-07-24T05:03:59;11.23;;;6.07;;
17488;SDS011;8861;52.644;4.734;2023-07-24T05:06:26;14.63;;;6.60;;
17488;SDS011;8861;52.644;4.734;2023-07-24T05:08:53;13.77;;;5.97;;
17488;SDS011;8861;52.644;4.734;2023-07-24T05:11:22;14.97;;;6.30;;
17488;SDS011;8861;52.644;4.734;2023-07-24T05:13:48;14.97;;;6.03;;
17488;SDS011;8861;52.644;4.734;2023-07-24T05:16:15;9.47;;;6.00;;
17488;SDS011;8861;52.644;4.734;2023-07-24T05:18:42;10.37;;;5.77;;
17488;SDS011;8861;52.644;4.734;2023-07-24T05:21:09;9.83;;;5.83;;
17488;SDS011;8861;52.644;4.734;2023-07-24T05:23:36;11.70;;;6.13;;
17488;SDS011;8861;52.644;4.734;2023-07-24T05:26:03;11.33;;;6.03;;
17488;SDS011;8861;52.644;4.734;2023-07-24T05:28:32;14.67;;;6.80;;
17488;SDS011;8861;52.644;4.734;2023-07-24T05:31:00;12.70;;;6.90;;
17488;SDS011;8861;52.644;4.734;2023-07-24T05:33:28;11.93;;;6.77;;
17488;SDS011;8861;52.644;4.734;2023-07-24T05:35:57;15.10;;;6.37;;
17488;SDS011;8861;52.644;4.734;2023-07-24T05:38:24;11.90;;;6.13;;
17488;SDS011;8861;52.644;4.734;2023-07-24T05:40:55;13.97;;;6.27;;
17488;SDS011;8861;52.644;4.734;2023-07-24T05:43:22;10.63;;;5.67;;
17488;SDS011;8861;52.644;4.734;2023-07-24T05:45:51;10.13;;;5.90;;
17488;SDS011;8861;52.644;4.734;2023-07-24T05:48:18;12.90;;;6.40;;
17488;SDS011;8861;52.644;4.734;2023-07-24T05:50:45;12.63;;;6.60;;
17488;SDS011;8861;52.644;4.734;2023-07-24T05:53:13;12.57;;;6.20;;
17488;SDS011;8861;52.644;4.734;2023-07-24T05:55:41;13.20;;;6.77;;
17488;SDS011;8861;52.644;4.734;2023-07-24T05:58:08;14.43;;;6.67;;
17488;SDS011;8861;52.644;4.734;2023-07-24T06:00:36;12.20;;;6.30;;
17488;SDS011;8861;52.644;4.734;2023-07-24T06:03:05;15.57;;;6.73;;
17488;SDS011;8861;52.644;4.734;2023-07-24T06:05:32;12.50;;;6.73;;
17488;SDS011;8861;52.644;4.734;2023-07-24T06:07:59;10.87;;;6.50;;
17488;SDS011;8861;52.644;4.734;2023-07-24T06:10:26;11.67;;;6.47;;
17488;SDS011;8861;52.644;4.734;2023-07-24T06:12:53;14.53;;;7.40;;
17488;SDS011;8861;52.644;4.734;2023-07-24T06:15:20;14.67;;;7.57;;
17488;SDS011;8861;52.644;4.734;2023-07-24T06:17:47;12.23;;;6.90;;
17488;SDS011;8861;52.644;4.734;2023-07-24T06:20:16;12.73;;;6.57;;
17488;SDS011;8861;52.644;4.734;2023-07-24T06:22:43;11.63;;;6.67;;
17488;SDS011;8861;52.644;4.734;2023-07-24T06:25:10;17.07;;;7.37;;
17488;SDS011;8861;52.644;4.734;2023-07-24T06:27:37;14.93;;;7.30;;
17488;SDS011;8861;52.644;4.734;2023-07-24T06:30:05;14.97;;;7.50;;
17488;SDS011;8861;52.644;4.734;2023-07-24T06:32:33;12.53;;;7.17;;
17488;SDS011;8861;52.644;4.734;2023-07-24T06:35:00;12.87;;;6.93;;
17488;SDS011;8861;52.644;4.734;2023-07-24T06:37:28;15.83;;;7.93;;
17488;SDS011;8861;52.644;4.734;2023-07-24T06:39:55;14.30;;;6.63;;
17488;SDS011;8861;52.644;4.734;2023-07-24T06:42:23;13.83;;;6.90;;
17488;SDS011;8861;52.644;4.734;2023-07-24T06:44:50;11.73;;;7.27;;
17488;SDS011;8861;52.644;4.734;2023-07-24T06:47:16;13.20;;;7.33;;
17488;SDS011;8861;52.644;4.734;2023-07-24T06:49:43;11.30;;;7.40;;
17488;SDS011;8861;52.644;4.734;2023-07-24T06:52:12;13.17;;;7.30;;
17488;SDS011;8861;52.644;4.734;2023-07-24T06:54:40;11.77;;;6.80;;
17488;SDS011;8861;52.644;4.734;2023-07-24T06:57:07;12.27;;;7.10;;
17488;SDS011;8861;52.644;4.734;2023-07-24T06:59:34;12.77;;;6.97;;
17488;SDS011;8861;52.644;4.734;2023-07-24T07:02:01;11.53;;;7.10;;
17488;SDS011;8861;52.644;4.734;2023-07-24T07:04:28;13.30;;;6.87;;
17488;SDS011;8861;52.644;4.734;2023-07-24T07:06:55;17.83;;;8.40;;
17488;SDS011;8861;52.644;4.734;2023-07-24T07:09:22;15.60;;;8.53;;
17488;SDS011;8861;52.644;4.734;2023-07-24T07:11:51;16.60;;;8.60;;
17488;SDS011;8861;52.644;4.734;2023-07-24T07:14:18;13.93;;;6.90;;
17488;SDS011;8861;52.644;4.734;2023-07-24T07:16:44;20.30;;;8.27;;
17488;SDS011;8861;52.644;4.734;2023-07-24T07:19:12;16.90;;;7.87;;
17488;SDS011;8861;52.644;4.734;2023-07-24T07:21:39;14.23;;;7.63;;
17488;SDS011;8861;52.644;4.734;2023-07-24T07:24:06;15.47;;;8.23;;
17488;SDS011;8861;52.644;4.734;2023-07-24T07:26:33;15.20;;;8.83;;
17488;SDS011;8861;52.644;4.734;2023-07-24T07:29:01;15.60;;;7.83;;
17488;SDS011;8861;52.644;4.734;2023-07-24T07:31:29;15.80;;;7.67;;
17488;SDS011;8861;52.644;4.734;2023-07-24T07:33:56;12.10;;;6.83;;
17488;SDS011;8861;52.644;4.734;2023-07-24T07:36:23;12.50;;;7.23;;
17488;SDS011;8861;52.644;4.734;2023-07-24T07:38:49;14.23;;;7.40;;
17488;SDS011;8861;52.644;4.734;2023-07-24T07:41:16;18.30;;;7.43;;
17488;SDS011;8861;52.644;4.734;2023-07-24T07:43:43;12.33;;;7.37;;
17488;SDS011;8861;52.644;4.734;2023-07-24T07:46:12;11.30;;;6.80;;
17488;SDS011;8861;52.644;4.734;2023-07-24T07:48:39;12.73;;;7.47;;
17488;SDS011;8861;52.644;4.734;2023-07-24T07:51:06;8.77;;;6.60;;
17488;SDS011;8861;52.644;4.734;2023-07-24T07:53:33;14.37;;;7.53;;
17488;SDS011;8861;52.644;4.734;2023-07-24T07:56:00;11.60;;;6.80;;
17488;SDS011;8861;52.644;4.734;2023-07-24T07:58:27;13.67;;;7.10;;
17488;SDS011;8861;52.644;4.734;2023-07-24T08:00:54;12.60;;;7.50;;
17488;SDS011;8861;52.644;4.734;2023-07-24T08:03:22;18.20;;;8.17;;
17488;SDS011;8861;52.644;4.734;2023-07-24T08:05:49;11.87;;;7.43;;
17488;SDS011;8861;52.644;4.734;2023-07-24T08:08:16;10.60;;;7.13;;
17488;SDS011;8861;52.644;4.734;2023-07-24T08:10:43;13.53;;;8.03;;
17488;SDS011;8861;52.644;4.734;2023-07-24T08:13:10;12.43;;;7.60;;
17488;SDS011;8861;52.644;4.734;2023-07-24T08:15:37;14.10;;;8.30;;
17488;SDS011;8861;52.644;4.734;2023-07-24T08:18:04;12.90;;;7.47;;
17488;SDS011;8861;52.644;4.734;2023-07-24T08:20:34;13.97;;;7.60;;
17488;SDS011;8861;52.644;4.734;2023-07-24T08:23:02;12.63;;;7.40;;
17488;SDS011;8861;52.644;4.734;2023-07-24T08:25:29;11.63;;;7.90;;
17488;SDS011;8861;52.644;4.734;2023-07-24T08:27:56;13.33;;;8.80;;
17488;SDS011;8861;52.644;4.734;2023-07-24T08:30:23;13.33;;;8.70;;
17488;SDS011;8861;52.644;4.734;2023-07-24T08:32:50;11.23;;;8.13;;
17488;SDS011;8861;52.644;4.734;2023-07-24T08:35:18;8.93;;;6.87;;
17488;SDS011;8861;52.644;4.734;2023-07-24T08:37:47;9.10;;;7.43;;
17488;SDS011;8861;52.644;4.734;2023-07-24T08:40:14;13.07;;;9.73;;
17488;SDS011;8861;52.644;4.734;2023-07-24T08:42:42;15.57;;;9.67;;
17488;SDS011;8861;52.644;4.734;2023-07-24T08:45:11;15.20;;;9.10;;
17488;SDS011;8861;52.644;4.734;2023-07-24T08:47:40;12.13;;;8.67;;
17488;SDS011;8861;52.644;4.734;2023-07-24T08:50:09;10.20;;;8.30;;
17488;SDS011;8861;52.644;4.734;2023-07-24T08:52:37;9.67;;;8.10;;
17488;SDS011;8861;52.644;4.734;2023-07-24T08:55:06;9.63;;;8.63;;
17488;SDS011;8861;52.644;4.734;2023-07-24T08:57:34;8.57;;;7.77;;
17488;SDS011;8861;52.644;4.734;2023-07-24T09:00:02;10.37;;;8.37;;
17488;SDS011;8861;52.644;4.734;2023-07-24T09:02:30;8.63;;;7.73;;
17488;SDS011;8861;52.644;4.734;2023-07-24T09:04:58;9.90;;;8.27;;
17488;SDS011;8861;52.644;4.734;2023-07-24T09:07:25;14.80;;;9.77;;
17488;SDS011;8861;52.644;4.734;2023-07-24T09:09:52;15.93;;;13.63;;
17488;SDS011;8861;52.644;4.734;2023-07-24T09:12:21;16.13;;;13.23;;
17488;SDS011;8861;52.644;4.734;2023-07-24T09:14:48;13.80;;;10.80;;
17488;SDS011;8861;52.644;4.734;2023-07-24T09:17:26;11.00;;;9.90;;
17488;SDS011;8861;52.644;4.734;2023-07-24T09:19:55;11.47;;;10.23;;
17488;SDS011;8861;52.644;4.734;2023-07-24T09:22:22;11.90;;;9.67;;
17488;SDS011;8861;52.644;4.734;2023-07-24T09:24:52;15.00;;;11.23;;
17488;SDS011;8861;52.644;4.734;2023-07-24T09:27:24;20.70;;;13.43;;
17488;SDS011;8861;52.644;4.734;2023-07-24T09:29:51;13.43;;;10.80;;
17488;SDS011;8861;52.644;4.734;2023-07-24T09:32:19;10.00;;;8.87;;
17488;SDS011;8861;52.644;4.734;2023-07-24T09:34:47;11.17;;;8.90;;
17488;SDS011;8861;52.644;4.734;2023-07-24T09:37:25;13.10;;;10.87;;
17488;SDS011;8861;52.644;4.734;2023-07-24T09:39:53;14.13;;;10.07;;
17488;SDS011;8861;52.644;4.734;2023-07-24T09:42:28;13.30;;;10.70;;
17488;SDS011;8861;52.644;4.734;2023-07-24T09:44:59;18.20;;;12.37;;
17488;SDS011;8861;52.644;4.734;2023-07-24T09:47:27;16.27;;;12.03;;
17488;SDS011;8861;52.644;4.734;2023-07-24T09:49:54;14.77;;;10.83;;
17488;SDS011;8861;52.644;4.734;2023-07-24T09:52:22;14.97;;;11.30;;
17488;SDS011;8861;52.644;4.734;2023-07-24T09:54:55;11.93;;;9.97;;
17488;SDS011;8861;52.644;4.734;2023-07-24T09:57:26;13.53;;;9.83;;
17488;SDS011;8861;52.644;4.734;2023-07-24T09:59:55;17.93;;;11.63;;
17488;SDS011;8861;52.644;4.734;2023-07-24T10:02:23;14.23;;;9.90;;
17488;SDS011;8861;52.644;4.734;2023-07-24T10:04:51;13.23;;;10.10;;
17488;SDS011;8861;52.644;4.734;2023-07-24T10:07:19;12.53;;;9.70;;
17488;SDS011;8861;52.644;4.734;2023-07-24T10:09:48;13.17;;;10.20;;
17488;SDS011;8861;52.644;4.734;2023-07-24T10:12:16;10.67;;;9.03;;
17488;SDS011;8861;52.644;4.734;2023-07-24T10:14:44;9.80;;;7.73;;
17488;SDS011;8861;52.644;4.734;2023-07-24T10:17:13;9.60;;;7.13;;
17488;SDS011;8861;52.644;4.734;2023-07-24T10:19:40;8.30;;;6.20;;
17488;SDS011;8861;52.644;4.734;2023-07-24T10:22:09;7.50;;;5.30;;
17488;SDS011;8861;52.644;4.734;2023-07-24T10:24:43;6.40;;;4.57;;
17488;SDS011;8861;52.644;4.734;2023-07-24T10:27:10;3.93;;;3.53;;
17488;SDS011;8861;52.644;4.734;2023-07-24T10:29:38;4.03;;;3.60;;
17488;SDS011;8861;52.644;4.734;2023-07-24T10:32:05;3.90;;;3.47;;
17488;SDS011;8861;52.644;4.734;2023-07-24T10:34:44;6.20;;;3.70;;
17488;SDS011;8861;52.644;4.734;2023-07-24T10:37:11;5.47;;;3.57;;
17488;SDS011;8861;52.644;4.734;2023-07-24T10:39:38;4.80;;;3.90;;
17488;SDS011;8861;52.644;4.734;2023-07-24T10:42:07;7.43;;;5.33;;
17488;SDS011;8861;52.644;4.734;2023-07-24T10:44:35;8.83;;;6.60;;
17488;SDS011;8861;52.644;4.734;2023-07-24T10:47:03;10.60;;;7.10;;
17488;SDS011;8861;52.644;4.734;2023-07-24T10:49:31;10.70;;;6.97;;
17488;SDS011;8861;52.644;4.734;2023-07-24T10:52:00;7.37;;;6.57;;
17488;SDS011;8861;52.644;4.734;2023-07-24T10:54:27;7.70;;;5.60;;
17488;SDS011;8861;52.644;4.734;2023-07-24T10:56:57;10.80;;;5.33;;
17488;SDS011;8861;52.644;4.734;2023-07-24T10:59:35;5.37;;;4.83;;
17488;SDS011;8861;52.644;4.734;2023-07-24T11:02:03;5.50;;;5.00;;
17488;SDS011;8861;52.644;4.734;2023-07-24T11:04:32;10.07;;;6.20;;
17488;SDS011;8861;52.644;4.734;2023-07-24T11:07:00;8.80;;;5.83;;
17488;SDS011;8861;52.644;4.734;2023-07-24T11:09:34;9.03;;;5.80;;
17488;SDS011;8861;52.644;4.734;2023-07-24T11:12:08;6.37;;;4.80;;
17488;SDS011;8861;52.644;4.734;2023-07-24T11:14:45;5.00;;;4.50;;
17488;SDS011;8861;52.644;4.734;2023-07-24T11:17:13;5.20;;;4.70;;
17488;SDS011;8861;52.644;4.734;2023-07-24T11:19:41;5.10;;;4.53;;
17488;SDS011;8861;52.644;4.734;2023-07-24T11:22:08;4.73;;;4.30;;
17488;SDS011;8861;52.644;4.734;2023-07-24T11:24:41;4.67;;;4.27;;
17488;SDS011;8861;52.644;4.734;2023-07-24T11:27:10;2.87;;;2.57;;
17488;SDS011;8861;52.644;4.734;2023-07-24T11:29:40;3.37;;;2.57;;
17488;SDS011;8861;52.644;4.734;2023-07-24T11:32:07;2.30;;;2.00;;
17488;SDS011;8861;52.644;4.734;2023-07-24T11:34:34;2.33;;;2.13;;
17488;SDS011;8861;52.644;4.734;2023-07-24T11:37:03;2.40;;;2.20;;
17488;SDS011;8861;52.644;4.734;2023-07-24T11:39:32;2.17;;;2.07;;
17488;SDS011;8861;52.644;4.734;2023-07-24T11:41:59;2.30;;;2.00;;
17488;SDS011;8861;52.644;4.734;2023-07-24T11:44:27;2.10;;;1.90;;
17488;SDS011;8861;52.644;4.734;2023-07-24T11:47:01;3.03;;;1.80;;
17488;SDS011;8861;52.644;4.734;2023-07-24T11:49:29;2.13;;;1.90;;
17488;SDS011;8861;52.644;4.734;2023-07-24T11:52:00;2.00;;;1.87;;
17488;SDS011;8861;52.644;4.734;2023-07-24T11:54:33;1.80;;;1.70;;
17488;SDS011;8861;52.644;4.734;2023-07-24T11:57:00;3.00;;;2.00;;
17488;SDS011;8861;52.644;4.734;2023-07-24T11:59:27;3.57;;;2.47;;
17488;SDS011;8861;52.644;4.734;2023-07-24T12:01:54;4.60;;;2.53;;
17488;SDS011;8861;52.644;4.734;2023-07-24T12:04:21;5.40;;;2.63;;
17488;SDS011;8861;52.644;4.734;2023-07-24T12:06:48;5.13;;;2.70;;
17488;SDS011;8861;52.644;4.734;2023-07-24T12:09:17;5.80;;;2.70;;
17488;SDS011;8861;52.644;4.734;2023-07-24T12:11:44;6.67;;;2.97;;
17488;SDS011;8861;52.644;4.734;2023-07-24T12:14:12;5.10;;;2.80;;
17488;SDS011;8861;52.644;4.734;2023-07-24T12:16:39;5.23;;;2.70;;
17488;SDS011;8861;52.644;4.734;2023-07-24T12:19:06;5.00;;;2.57;;
17488;SDS011;8861;52.644;4.734;2023-07-24T12:21:33;7.80;;;2.80;;
17488;SDS011;8861;52.644;4.734;2023-07-24T12:24:00;6.03;;;2.40;;
17488;SDS011;8861;52.644;4.734;2023-07-24T12:26:29;5.80;;;2.30;;
17488;SDS011;8861;52.644;4.734;2023-07-24T12:28:56;5.63;;;2.30;;
17488;SDS011;8861;52.644;4.734;2023-07-24T12:31:25;4.60;;;2.13;;
17488;SDS011;8861;52.644;4.734;2023-07-24T12:33:52;6.60;;;2.00;;
17488;SDS011;8861;52.644;4.734;2023-07-24T12:36:19;5.83;;;2.10;;
17488;SDS011;8861;52.644;4.734;2023-07-24T12:38:46;9.27;;;2.57;;
17488;SDS011;8861;52.644;4.734;2023-07-24T12:41:14;4.87;;;2.63;;
17488;SDS011;8861;52.644;4.734;2023-07-24T12:43:42;4.63;;;2.40;;
17488;SDS011;8861;52.644;4.734;2023-07-24T12:46:10;4.63;;;2.60;;
17488;SDS011;8861;52.644;4.734;2023-07-24T12:48:37;7.60;;;2.70;;
17488;SDS011;8861;52.644;4.734;2023-07-24T12:51:04;4.07;;;2.43;;
17488;SDS011;8861;52.644;4.734;2023-07-24T12:53:31;4.60;;;2.60;;
17488;SDS011;8861;52.644;4.734;2023-07-24T12:55:58;5.17;;;2.50;;
17488;SDS011;8861;52.644;4.734;2023-07-24T12:58:25;4.70;;;2.40;;
17488;SDS011;8861;52.644;4.734;2023-07-24T13:00:53;4.23;;;2.57;;
17488;SDS011;8861;52.644;4.734;2023-07-24T13:03:20;4.90;;;2.47;;
17488;SDS011;8861;52.644;4.734;2023-07-24T13:05:47;6.50;;;2.57;;
17488;SDS011;8861;52.644;4.734;2023-07-24T13:08:14;4.03;;;2.50;;
17488;SDS011;8861;52.644;4.734;2023-07-24T13:10:41;6.10;;;2.87;;
17488;SDS011;8861;52.644;4.734;2023-07-24T13:13:08;6.20;;;2.97;;
17488;SDS011;8861;52.644;4.734;2023-07-24T13:15:35;6.67;;;2.90;;
17488;SDS011;8861;52.644;4.734;2023-07-24T13:18:03;7.30;;;2.63;;
17488;SDS011;8861;52.644;4.734;2023-07-24T13:20:30;5.93;;;2.90;;
17488;SDS011;8861;52.644;4.734;2023-07-24T13:22:57;4.13;;;2.50;;
17488;SDS011;8861;52.644;4.734;2023-07-24T13:25:24;6.27;;;2.60;;
17488;SDS011;8861;52.644;4.734;2023-07-24T13:27:51;8.53;;;2.57;;
17488;SDS011;8861;52.644;4.734;2023-07-24T13:30:19;6.70;;;2.60;;
17488;SDS011;8861;52.644;4.734;2023-07-24T13:32:46;5.13;;;2.10;;
17488;SDS011;8861;52.644;4.734;2023-07-24T13:35:14;6.30;;;2.40;;
17488;SDS011;8861;52.644;4.734;2023-07-24T13:37:42;4.67;;;2.17;;
17488;SDS011;8861;52.644;4.734;2023-07-24T13:40:09;4.20;;;1.77;;
17488;SDS011;8861;52.644;4.734;2023-07-24T13:42:36;5.27;;;1.80;;
17488;SDS011;8861;52.644;4.734;2023-07-24T13:45:04;4.60;;;1.70;;
17488;SDS011;8861;52.644;4.734;2023-07-24T13:47:31;3.27;;;1.87;;
17488;SDS011;8861;52.644;4.734;2023-07-24T13:49:58;2.60;;;1.60;;
17488;SDS011;8861;52.644;4.734;2023-07-24T13:52:29;3.83;;;1.80;;
17488;SDS011;8861;52.644;4.734;2023-07-24T13:54:56;3.53;;;1.47;;
17488;SDS011;8861;52.644;4.734;2023-07-24T13:57:23;3.27;;;1.53;;
17488;SDS011;8861;52.644;4.734;2023-07-24T13:59:50;3.43;;;1.40;;
17488;SDS011;8861;52.644;4.734;2023-07-24T14:02:17;2.33;;;1.40;;
17488;SDS011;8861;52.644;4.734;2023-07-24T14:04:44;2.43;;;1.50;;
17488;SDS011;8861;52.644;4.734;2023-07-24T14:07:11;3.63;;;1.40;;
17488;SDS011;8861;52.644;4.734;2023-07-24T14:09:40;2.80;;;1.30;;
17488;SDS011;8861;52.644;4.734;2023-07-24T14:12:07;2.70;;;1.60;;
17488;SDS011;8861;52.644;4.734;2023-07-24T14:14:34;2.47;;;1.57;;
17488;SDS011;8861;52.644;4.734;2023-07-24T14:17:01;3.30;;;1.77;;
17488;SDS011;8861;52.644;4.734;2023-07-24T14:19:28;1.50;;;1.40;;
17488;SDS011;8861;52.644;4.734;2023-07-24T14:21:55;1.47;;;1.30;;
17488;SDS011;8861;52.644;4.734;2023-07-24T14:24:22;3.93;;;1.70;;
17488;SDS011;8861;52.644;4.734;2023-07-24T14:26:50;2.87;;;1.70;;
17488;SDS011;8861;52.644;4.734;2023-07-24T14:29:17;3.27;;;1.80;;
17488;SDS011;8861;52.644;4.734;2023-07-24T14:31:44;4.83;;;1.90;;
17488;SDS011;8861;52.644;4.734;2023-07-24T14:34:11;4.80;;;1.90;;
17488;SDS011;8861;52.644;4.734;2023-07-24T14:36:38;4.07;;;2.00;;
17488;SDS011;8861;52.644;4.734;2023-07-24T14:39:05;3.27;;;2.07;;
17488;SDS011;8861;52.644;4.734;2023-07-24T14:41:33;5.20;;;2.30;;
17488;SDS011;8861;52.644;4.734;2023-07-24T14:44:01;6.00;;;2.40;;
17488;SDS011;8861;52.644;4.734;2023-07-24T14:46:28;4.20;;;2.00;;
17488;SDS011;8861;52.644;4.734;2023-07-24T14:48:55;4.30;;;2.10;;
17488;SDS011;8861;52.644;4.734;2023-07-24T14:51:23;3.70;;;1.90;;
17488;SDS011;8861;52.644;4.734;2023-07-24T14:53:51;3.37;;;2.00;;
17488;SDS011;8861;52.644;4.734;2023-07-24T14:56:18;5.20;;;1.87;;